Time;durP1;ratioP1;P1;durP2;ratioP2;P2;SDS_P1;SDS_P2;PMS_P1;PMS_P2;Temp;Humidity;BMP_temperature;BMP_pressure;BME280_temperature;BME280_humidity;BME280_pressure;Samples;Min_cycle;Max_cycle;Signal;HPM_P1;HPM_P2
2022/11/28 00:03:51;;;;;;;89.35;47.10;;;;;;;1.78;100.00;99854.14;4428024;78;21022;-86
2022/11/28 00:10:26;;;;;;;91.20;47.80;;;;;;;1.77;100.00;99851.74;4459224;78;21076;-86
2022/11/28 00:16:44;;;;;;;88.67;46.28;;;;;;;1.73;100.00;99843.43;4442995;78;20975;-86
2022/11/28 00:22:45;;;;;;;87.70;44.85;;;;;;;1.72;100.00;99844.53;4450210;78;21038;-86
2022/11/28 00:28:48;;;;;;;91.75;45.88;;;;;;;1.69;100.00;99859.16;4474400;78;21620;-87
2022/11/28 00:34:51;;;;;;;89.83;45.95;;;;;;;1.67;100.00;99859.47;4454479;78;20972;-87
2022/11/28 00:41:09;;;;;;;83.47;44.65;;;;;;;1.69;100.00;99868.61;4424728;78;21018;-86
2022/11/28 00:47:17;;;;;;;82.40;43.08;;;;;;;1.70;100.00;99871.02;4416977;78;21042;-86
2022/11/28 00:53:18;;;;;;;81.75;42.17;;;;;;;1.71;100.00;99870.48;4453936;78;21550;-87
2022/11/28 00:59:43;;;;;;;89.97;44.63;;;;;;;1.68;100.00;99872.42;4433296;78;20970;-87
2022/11/28 01:05:45;;;;;;;89.67;46.63;;;;;;;1.57;100.00;99860.97;4439141;78;21022;-86
2022/11/28 01:11:48;;;;;;;90.15;43.60;;;;;;;1.58;100.00;99855.27;4433978;78;20986;-86
2022/11/28 01:24:56;;;;;;;91.53;45.25;;;;;;;1.55;100.00;99826.19;4459069;78;21175;-86
2022/11/28 01:31:10;;;;;;;83.75;43.50;;;;;;;1.56;100.00;99824.30;4449530;78;21014;-86
2022/11/28 01:37:23;;;;;;;87.97;45.20;;;;;;;1.54;100.00;99811.09;4458231;78;21002;-87
2022/11/28 01:43:26;;;;;;;79.77;42.88;;;;;;;1.52;100.00;99807.08;4467455;78;20996;-86
2022/11/28 01:49:35;;;;;;;77.58;42.48;;;;;;;1.45;100.00;99788.59;4471156;78;21016;-87
2022/11/28 02:03:04;;;;;;;85.53;44.93;;;;;;;1.38;100.00;99779.26;4477262;78;21918;-87
2022/11/28 02:09:14;;;;;;;79.35;43.63;;;;;;;1.31;100.00;99767.53;4471237;78;20966;-87
2022/11/28 02:16:08;;;;;;;87.95;43.80;;;;;;;1.28;100.00;99764.08;4473271;78;20956;-86
2022/11/28 02:23:01;;;;;;;85.65;43.48;;;;;;;1.24;100.00;99756.30;4484710;78;21008;-86
2022/11/28 02:29:58;;;;;;;90.25;45.75;;;;;;;1.19;100.00;99759.64;4257322;81;21062;-86
2022/11/28 02:36:14;;;;;;;93.17;45.12;;;;;;;1.16;100.00;99753.50;4310004;80;21043;-86
2022/11/28 02:42:39;;;;;;;88.47;44.20;;;;;;;1.15;100.00;99745.13;4521023;77;21048;-86
2022/11/28 02:49:01;;;;;;;87.80;44.08;;;;;;;1.11;100.00;99740.88;4555286;77;21475;-86
2022/11/28 02:55:05;;;;;;;87.22;43.98;;;;;;;1.13;100.00;99737.34;4428020;79;21028;-86
2022/11/28 03:01:12;;;;;;;87.65;45.23;;;;;;;1.15;100.00;99738.39;4431294;79;21040;-86
2022/11/28 03:07:39;;;;;;;79.53;42.20;;;;;;;1.15;100.00;99726.26;4407336;79;21087;-86
2022/11/28 03:13:56;;;;;;;;;;;;;;;1.18;100.00;99726.47;4453983;79;21048;-86
2022/11/28 03:20:10;;;;;;;64.95;32.95;;;;;;;1.18;100.00;99717.03;4443678;79;20453;-86
2022/11/28 03:26:32;;;;;;;83.15;43.70;;;;;;;1.19;100.00;99711.10;4388011;80;21605;-86
2022/11/28 03:32:38;;;;;;;81.22;44.20;;;;;;;1.18;100.00;99712.98;4356695;80;21011;-86
2022/11/28 03:38:44;;;;;;;84.17;43.02;;;;;;;1.19;100.00;99709.19;4365441;78;21043;-86
2022/11/28 03:44:56;;;;;;;85.42;44.63;;;;;;;1.21;100.00;99707.54;4363452;80;20998;-87
2022/11/28 03:51:07;;;;;;;80.67;41.63;;;;;;;1.23;100.00;99704.01;4450628;78;21058;-86
2022/11/28 03:57:36;;;;;;;93.35;46.42;;;;;;;1.25;100.00;99696.42;4429579;78;20974;-86
2022/11/28 04:03:52;;;;;;;78.55;42.23;;;;;;;1.26;100.00;99692.09;4453241;78;22181;-86
2022/11/28 04:09:59;;;;;;;80.57;41.98;;;;;;;1.25;100.00;99695.08;4305601;81;21094;-86
2022/11/28 04:16:48;;;;;;;82.97;42.27;;;;;;;1.25;100.00;99687.77;4399216;80;21005;-87
2022/11/28 04:22:57;;;;;;;82.20;41.00;;;;;;;1.27;100.00;99698.26;4409265;80;21078;-86
2022/11/28 04:29:02;;;;;;;84.37;40.40;;;;;;;1.27;100.00;99692.33;4404580;80;21427;-86
2022/11/28 04:35:11;;;;;;;70.97;38.28;;;;;;;1.30;100.00;99686.33;4394563;79;21068;-87
2022/11/28 04:41:17;;;;;;;81.30;43.63;;;;;;;1.32;100.00;99684.15;4446870;79;21658;-86
2022/11/28 04:47:19;;;;;;;73.87;39.53;;;;;;;1.33;100.00;99676.87;4409062;79;21059;-87
2022/11/28 04:54:10;;;;;;;73.12;38.30;;;;;;;1.36;100.00;99685.14;4463997;79;21542;-86
2022/11/28 05:00:16;;;;;;;71.45;37.80;;;;;;;1.41;100.00;99681.00;4450122;79;21039;-86
2022/11/28 05:06:25;;;;;;;66.05;37.88;;;;;;;1.41;100.00;99674.80;4415060;79;21052;-87
2022/11/28 05:12:30;;;;;;;72.37;36.23;;;;;;;1.41;100.00;99674.80;4405809;79;21011;-86
2022/11/28 05:18:32;;;;;;;68.87;34.92;;;;;;;1.42;100.00;99673.72;4417355;79;21000;-86
2022/11/28 05:24:33;;;;;;;71.70;37.08;;;;;;;1.41;100.00;99670.22;4437050;79;21517;-87
2022/11/28 05:30:41;;;;;;;69.87;36.05;;;;;;;1.42;100.00;99671.02;4432441;79;21059;-87
2022/11/28 05:36:49;;;;;;;70.40;35.43;;;;;;;1.41;100.00;99667.52;4367394;80;21067;-86
2022/11/28 05:42:50;;;;;;;90.20;50.03;;;;;;;1.39;100.00;99666.23;4343067;80;21058;-86
2022/11/28 05:48:52;;;;;;;73.57;39.45;;;;;;;1.37;100.00;99677.85;4357562;80;21050;-86
2022/11/28 05:54:53;;;;;;;75.30;36.68;;;;;;;1.35;100.00;99673.30;4353180;80;21032;-86
2022/11/28 06:00:55;;;;;;;69.65;36.08;;;;;;;1.35;100.00;99667.36;4359635;80;21003;-85
2022/11/28 06:06:59;;;;;;;68.22;34.60;;;;;;;1.34;100.00;99671.71;4433945;78;21599;-87
2022/11/28 06:13:01;;;;;;;71.90;36.45;;;;;;;1.35;100.00;99674.11;4457404;78;21100;-86
2022/11/28 06:19:04;;;;;;;71.37;38.48;;;;;;;1.36;100.00;99676.27;4469739;78;22138;-86
2022/11/28 06:25:06;;;;;;;79.70;37.45;;;;;;;1.34;100.00;99665.77;4450286;77;20973;-87
2022/11/28 06:44:57;;;;;;;66.17;33.95;;;;;;;1.36;100.00;99665.48;4433740;78;21010;-85
2022/11/28 06:51:04;;;;;;;73.57;35.08;;;;;;;1.35;100.00;99658.46;4443120;78;21540;-86
2022/11/28 06:57:06;;;;;;;65.62;33.98;;;;;;;1.38;100.00;99661.37;4424565;78;21536;-86
2022/11/28 07:03:08;;;;;;;64.67;34.50;;;;;;;1.43;100.00;99664.52;4431697;78;21601;-86
2022/11/28 07:09:09;;;;;;;68.55;35.85;;;;;;;1.50;100.00;99674.38;4444756;78;21491;-86
2022/11/28 07:15:11;;;;;;;65.80;33.08;;;;;;;1.58;100.00;99674.47;4446537;77;21433;-87
2022/11/28 07:21:13;;;;;;;60.35;32.38;;;;;;;1.65;100.00;99668.67;4437765;78;21550;-86
2022/11/28 07:27:17;;;;;;;68.12;32.45;;;;;;;1.67;100.00;99670.53;4436686;78;21602;-87
2022/11/28 07:33:18;;;;;;;58.48;30.97;;;;;;;1.74;100.00;99666.09;4457560;78;20966;-87
2022/11/28 07:39:20;;;;;;;59.00;30.23;;;;;;;1.78;100.00;99667.88;4449480;78;21741;-86
2022/11/28 07:45:32;;;;;;;55.43;30.35;;;;;;;1.77;100.00;99666.83;4447010;78;20990;-85
2022/11/28 07:51:34;;;;;;;60.75;31.97;;;;;;;1.83;100.00;99661.03;4439731;78;21062;-86
2022/11/28 07:57:38;;;;;;;53.42;28.70;;;;;;;1.89;100.00;99667.11;4465873;78;20986;-87
2022/11/28 08:03:39;;;;;;;60.00;31.02;;;;;;;1.96;100.00;99661.55;4449923;78;21030;-86
2022/11/28 08:09:41;;;;;;;54.27;27.80;;;;;;;2.05;100.00;99672.45;4471884;78;20999;-87
2022/11/28 08:15:43;;;;;;;54.58;28.50;;;;;;;2.09;100.00;99665.33;4425722;78;21016;-86
2022/11/28 08:21:44;;;;;;;55.92;27.48;;;;;;;2.15;100.00;99664.11;4423837;78;22140;-86
2022/11/28 08:27:45;;;;;;;47.30;24.82;;;;;;;2.20;100.00;99664.01;4436958;78;22018;-87
2022/11/28 08:33:51;;;;;;;44.83;26.02;;;;;;;2.28;100.00;99660.59;4429794;78;21014;-87
2022/11/28 08:40:00;;;;;;;39.13;19.40;;;;;;;2.34;100.00;99658.02;4450310;77;21046;-86
2022/11/28 08:46:10;;;;;;;47.40;26.45;;;;;;;2.37;100.00;99656.86;4442542;78;21872;-86
2022/11/28 08:52:12;;;;;;;54.10;25.37;;;;;;;2.40;100.00;99649.50;4297056;80;21027;-87
2022/11/28 08:58:14;;;;;;;41.75;24.72;;;;;;;2.48;100.00;99648.77;4366893;80;21014;-87
2022/11/28 09:04:15;;;;;;;49.30;27.00;;;;;;;2.56;100.00;99638.58;4359426;80;21048;-88
2022/11/28 09:10:17;;;;;;;42.40;24.77;;;;;;;2.71;100.00;99631.44;4424232;80;20955;-87
2022/11/28 09:16:28;;;;;;;47.55;26.33;;;;;;;2.84;100.00;99625.72;4426039;80;21488;-87
2022/11/28 09:22:33;;;;;;;46.37;26.35;;;;;;;2.98;100.00;99612.92;4443128;80;21389;-87
2022/11/28 09:28:40;;;;;;;45.45;25.97;;;;;;;3.21;100.00;99606.38;4378131;78;20975;-87
2022/11/28 09:34:41;;;;;;;42.88;23.20;;;;;;;3.71;100.00;99594.09;4446035;78;21284;-87
2022/11/28 09:40:43;;;;;;;40.88;23.15;;;;;;;4.50;100.00;99588.67;4445341;77;22241;-87
2022/11/28 09:46:47;;;;;;;36.23;21.82;;;;;;;5.37;100.00;99590.04;4437050;78;21066;-86
2022/11/28 09:53:26;;;;;;;31.90;18.95;;;;;;;6.08;100.00;99583.56;4446309;78;20960;-87
2022/11/28 09:59:29;;;;;;;32.05;18.85;;;;;;;6.65;100.00;99579.10;4440974;78;21011;-85
2022/11/28 10:05:36;;;;;;;30.92;18.90;;;;;;;7.04;100.00;99570.36;4442381;78;21059;-87
2022/11/28 10:12:26;;;;;;;33.88;19.87;;;;;;;7.31;100.00;99564.84;4445040;78;21615;-88
2022/11/28 10:18:46;;;;;;;35.58;19.87;;;;;;;7.30;100.00;99556.42;4399745;80;21930;-87
2022/11/28 10:24:55;;;;;;;35.30;19.95;;;;;;;7.03;100.00;99553.01;4274431;81;21550;-88
2022/11/28 10:31:22;;;;;;;34.27;19.98;;;;;;;7.22;100.00;99549.95;4426281;78;21043;-88
2022/11/28 10:37:30;;;;;;;30.37;18.92;;;;;;;7.32;100.00;99545.99;4428595;78;21015;-88
2022/11/28 10:43:46;;;;;;;31.55;19.55;;;;;;;7.38;100.00;99537.81;4459989;77;21018;-88
2022/11/28 10:50:34;;;;;;;33.13;18.90;;;;;;;7.36;100.00;99529.22;4484770;77;21011;-88
2022/11/28 10:57:00;;;;;;;32.83;18.05;;;;;;;7.05;100.00;99529.75;4371100;78;20971;-89
2022/11/28 11:03:05;;;;;;;31.55;18.55;;;;;;;6.93;100.00;99517.48;4461362;78;21002;-88
2022/11/28 11:09:12;;;;;;;29.70;17.75;;;;;;;6.91;100.00;99497.17;4432801;78;21047;-89
2022/11/28 11:15:31;;;;;;;30.25;18.32;;;;;;;6.94;100.00;99494.58;4467815;78;21012;-87
2022/11/28 11:21:32;;;;;;;31.15;17.45;;;;;;;6.76;100.00;99489.67;4452146;78;20998;-88
2022/11/28 11:27:36;;;;;;;32.00;17.62;;;;;;;6.72;100.00;99497.71;4460773;78;21022;-89
2022/11/28 11:33:37;;;;;;;29.67;16.45;;;;;;;6.62;100.00;99484.55;4467013;78;21607;-88
2022/11/28 11:39:49;;;;;;;30.08;17.55;;;;;;;6.56;100.00;99489.19;4468154;78;21035;-89
2022/11/28 11:46:13;;;;;;;28.35;16.67;;;;;;;6.43;100.00;99488.36;4443427;78;21010;-89
2022/11/28 11:52:26;;;;;;;26.95;15.90;;;;;;;6.25;100.00;99487.72;4438174;78;20986;-88
2022/11/28 11:58:33;;;;;;;29.85;16.57;;;;;;;6.18;100.00;99496.20;4448911;78;20960;-89
2022/11/28 12:04:46;;;;;;;32.03;16.73;;;;;;;5.99;100.00;99488.53;4282128;80;21681;-88
2022/11/28 12:10:53;;;;;;;27.65;16.05;;;;;;;5.93;100.00;99480.91;4427958;79;21048;-89
2022/11/28 12:17:22;;;;;;;26.12;16.30;;;;;;;5.83;100.00;99480.73;4423848;79;20985;-88
2022/11/28 12:24:04;;;;;;;27.95;16.50;;;;;;;5.73;100.00;99478.96;4460871;78;21369;-86
2022/11/28 12:30:39;;;;;;;25.70;15.10;;;;;;;5.76;100.00;99474.22;4447880;78;21036;-86
2022/11/28 12:36:49;;;;;;;29.40;16.27;;;;;;;5.79;100.00;99476.27;4285319;81;21567;-86
2022/11/28 12:43:37;;;;;;;29.50;16.05;;;;;;;5.79;100.00;99474.36;4422225;78;21010;-89
2022/11/28 12:49:59;;;;;;;28.87;15.83;;;;;;;5.73;100.00;99474.89;4394770;79;21340;-87
2022/11/28 12:56:27;;;;;;;28.92;15.60;;;;;;;5.66;100.00;99468.63;4401565;79;21504;-86
2022/11/28 13:02:57;;;;;;;23.70;13.85;;;;;;;5.57;100.00;99465.18;4380826;79;21030;-87
2022/11/28 13:09:25;;;;;;;25.55;14.33;;;;;;;5.38;100.00;99459.39;4389825;79;20999;-87
2022/11/28 13:15:59;;;;;;;25.75;13.50;;;;;;;5.22;100.00;99462.44;4395890;79;21085;-87
2022/11/28 13:22:13;;;;;;;20.17;12.30;;;;;;;5.15;100.00;99454.59;4395083;79;21011;-87
2022/11/28 13:28:23;;;;;;;19.95;10.80;;;;;;;5.02;100.00;99453.70;4410078;79;20969;-87
2022/11/28 13:34:25;;;;;;;22.60;12.25;;;;;;;4.96;100.00;99452.84;4301231;81;21638;-86
2022/11/28 13:40:52;;;;;;;22.27;11.95;;;;;;;4.87;100.00;99450.73;4388818;79;21848;-87
2022/11/28 13:46:54;;;;;;;;;;;;;;;4.78;100.00;99454.28;4432393;78;21347;-88
2022/11/28 13:53:10;;;;;;;23.05;11.63;;;;;;;4.69;100.00;99458.14;4426527;78;20148;-87
2022/11/28 13:59:21;;;;;;;21.83;11.60;;;;;;;4.61;100.00;99446.77;4431441;78;20986;-87
2022/11/28 14:05:35;;;;;;;20.92;11.10;;;;;;;4.53;100.00;99446.23;4317745;81;21532;-88
2022/11/28 14:12:07;;;;;;;18.57;10.68;;;;;;;4.43;100.00;99447.95;4278188;81;21063;-88
2022/11/28 14:18:26;;;;;;;18.87;9.70;;;;;;;4.31;100.00;99439.67;4428314;78;21883;-87
2022/11/28 14:24:42;;;;;;;18.52;10.53;;;;;;;4.19;100.00;99444.42;4373530;80;21497;-88
2022/11/28 14:30:45;;;;;;;19.90;9.03;;;;;;;4.05;100.00;99438.39;4347841;80;21002;-87
2022/11/28 14:36:48;;;;;;;17.70;9.23;;;;;;;3.89;100.00;99438.65;4434204;78;20990;-88
2022/11/28 14:43:19;;;;;;;16.57;9.48;;;;;;;3.72;100.00;99429.73;4440172;78;21037;-87
2022/11/28 14:49:23;;;;;;;25.50;14.05;;;;;;;3.54;100.00;99437.63;4441406;78;21562;-87
2022/11/28 14:55:27;;;;;;;19.48;10.28;;;;;;;3.35;100.00;99437.94;4412158;78;20998;-87
2022/11/28 15:01:44;;;;;;;16.37;9.40;;;;;;;3.20;100.00;99437.02;4365238;80;21042;-87
2022/11/28 15:08:14;;;;;;;16.95;10.13;;;;;;;3.05;100.00;99438.25;4379962;79;20966;-87
2022/11/28 15:21:00;;;;;;;29.72;14.75;;;;;;;2.70;100.00;99447.38;4399289;80;21209;-88
2022/11/28 15:27:22;;;;;;;26.42;13.95;;;;;;;2.55;100.00;99441.59;4302096;81;21050;-87
2022/11/28 15:33:26;;;;;;;25.68;13.43;;;;;;;2.39;100.00;99447.96;4413154;79;21003;-87
2022/11/28 15:39:43;;;;;;;24.70;14.40;;;;;;;2.23;100.00;99445.41;4400529;80;20995;-87
2022/11/28 15:45:57;;;;;;;42.55;20.32;;;;;;;2.03;100.00;99443.77;4406305;79;20983;-86
2022/11/28 15:59:03;;;;;;;44.93;18.62;;;;;;;1.59;100.00;99438.62;4415932;80;20940;-87
2022/11/28 16:05:14;;;;;;;53.13;23.12;;;;;;;1.50;100.00;99436.37;4283641;81;20931;-86
2022/11/28 16:11:23;;;;;;;49.35;20.82;;;;;;;1.28;100.00;99442.30;4433640;78;21586;-87
2022/11/28 16:17:31;;;;;;;41.80;22.40;;;;;;;1.14;100.00;99441.53;4424400;78;20977;-87
2022/11/28 16:23:36;;;;;;;40.55;19.77;;;;;;;1.06;100.00;99444.93;4425609;78;21029;-86
2022/11/28 16:29:44;;;;;;;88.92;32.25;;;;;;;0.95;100.00;99446.23;4428791;78;21006;-87
2022/11/28 16:35:48;;;;;;;59.18;27.20;;;;;;;0.75;100.00;99446.66;4431872;78;20967;-87
2022/11/28 16:42:06;;;;;;;109.83;41.83;;;;;;;0.73;100.00;99452.34;4431068;78;21677;-87
2022/11/28 16:48:17;;;;;;;99.67;35.83;;;;;;;0.60;100.00;99448.28;4397516;78;21273;-87
2022/11/28 16:54:31;;;;;;;218.42;70.00;;;;;;;0.45;100.00;99455.31;4444758;78;21039;-86
2022/11/28 17:01:00;;;;;;;208.97;69.00;;;;;;;0.31;100.00;99454.49;4440868;78;21024;-86
2022/11/28 17:07:04;;;;;;;160.78;56.33;;;;;;;0.20;100.00;99455.77;4445084;78;21047;-86
2022/11/28 17:13:05;;;;;;;150.80;54.00;;;;;;;0.20;100.00;99455.77;4459321;77;21011;-86
2022/11/28 17:19:07;;;;;;;101.97;41.42;;;;;;;0.12;100.00;99457.78;4485805;78;21014;-87
2022/11/28 17:25:18;;;;;;;75.12;35.17;;;;;;;-0.01;100.00;99453.42;4314961;78;9999499;-86
2022/11/28 17:31:22;;;;;;;67.75;27.60;;;;;;;-0.10;100.00;99456.55;4449251;78;21423;-86
2022/11/28 17:37:24;;;;;;;55.75;28.67;;;;;;;-0.10;100.00;99461.92;4436705;78;20991;-86
2022/11/28 17:43:26;;;;;;;56.88;26.95;;;;;;;-0.10;100.00;99464.62;4433006;77;21494;-86
2022/11/28 17:49:33;;;;;;;62.65;31.50;;;;;;;-0.12;100.00;99461.95;4424136;79;21037;-86
2022/11/28 17:55:58;;;;;;;66.92;33.33;;;;;;;-0.11;100.00;99460.87;4441511;80;21599;-86
2022/11/28 18:02:02;;;;;;;87.67;40.83;;;;;;;-0.19;100.00;99458.28;4439283;78;21010;-86
2022/11/28 18:08:04;;;;;;;207.30;98.52;;;;;;;-0.30;100.00;99456.84;4449614;78;21924;-89
2022/11/28 18:14:06;;;;;;;153.42;64.12;;;;;;;-0.35;100.00;99454.78;4380976;78;21539;-86
2022/11/28 18:20:10;;;;;;;143.32;61.70;;;;;;;-0.49;100.00;99453.93;4426889;80;21062;-86
2022/11/28 18:26:16;;;;;;;105.65;50.67;;;;;;;-0.53;100.00;99449.67;4417199;79;20989;-86
2022/11/28 18:32:18;;;;;;;114.03;53.20;;;;;;;-0.67;100.00;99450.14;4436906;80;20987;-86
2022/11/28 18:38:27;;;;;;;103.87;55.63;;;;;;;-0.85;100.00;99454.17;4439491;80;20987;-86
2022/11/28 18:44:28;;;;;;;101.92;52.35;;;;;;;-0.99;100.00;99451.94;4416528;77;20973;-86
2022/11/28 18:50:30;;;;;;;94.20;47.20;;;;;;;-1.05;100.00;99451.75;4551976;77;20994;-86
2022/11/28 18:56:33;;;;;;;117.30;56.13;;;;;;;-1.12;100.00;99446.72;4540419;77;20974;-86
2022/11/28 19:02:35;;;;;;;100.60;54.25;;;;;;;-1.14;100.00;99456.95;4575340;77;21279;-85
2022/11/28 19:08:40;;;;;;;102.43;52.87;;;;;;;-1.19;100.00;99454.31;4517598;77;21002;-86
2022/11/28 19:14:42;;;;;;;106.65;54.00;;;;;;;-1.29;100.00;99461.70;4559521;77;21043;-85
2022/11/28 19:20:43;;;;;;;98.85;47.55;;;;;;;-1.34;100.00;99455.04;4540912;77;20911;-86
2022/11/28 19:26:46;;;;;;;98.65;49.53;;;;;;;-1.34;100.00;99455.04;4531869;77;20995;-85
2022/11/28 19:32:47;;;;;;;99.07;46.90;;;;;;;-1.35;100.00;99463.66;4517993;77;20917;-86
2022/11/28 19:38:49;;;;;;;73.40;36.98;;;;;;;-1.32;100.00;99457.72;4523600;77;20949;-85
2022/11/28 19:44:51;;;;;;;81.65;38.38;;;;;;;-1.31;100.00;99461.18;4540917;77;21021;-85
2022/11/28 19:50:52;;;;;;;83.97;40.67;;;;;;;-1.25;100.00;99456.81;4431274;78;20975;-85
2022/11/28 19:56:54;;;;;;;73.50;37.45;;;;;;;-1.28;100.00;99461.98;4439430;78;21997;-84
2022/11/28 20:02:55;;;;;;;70.37;34.20;;;;;;;-1.33;100.00;99455.32;4437490;78;21372;-84
2022/11/28 20:09:03;;;;;;;77.85;39.15;;;;;;;-1.34;100.00;99463.91;4500783;78;20956;-85
2022/11/28 20:15:05;;;;;;;83.43;39.73;;;;;;;-1.39;100.00;99464.52;4443191;77;21916;-84
2022/11/28 20:21:14;;;;;;;98.97;43.43;;;;;;;-1.42;100.00;99466.41;4323383;78;9999533;-85
2022/11/28 20:27:17;;;;;;;82.63;40.80;;;;;;;-1.49;100.00;99464.09;4439421;78;21045;-84
2022/11/28 20:33:18;;;;;;;79.70;36.80;;;;;;;-1.52;100.00;99461.98;4446804;78;20962;-84
2022/11/28 20:39:25;;;;;;;121.97;61.93;;;;;;;-1.56;100.00;99463.61;4429491;78;21017;-84
2022/11/28 20:45:26;;;;;;;99.20;49.63;;;;;;;-1.58;100.00;99468.45;4465460;77;20985;-83
2022/11/28 20:51:31;;;;;;;85.92;43.08;;;;;;;-1.60;100.00;99471.42;4504527;77;21033;-84
2022/11/28 20:57:32;;;;;;;83.90;41.00;;;;;;;-1.61;100.00;99470.37;4494055;77;20999;-84
2022/11/28 21:03:33;;;;;;;81.57;39.67;;;;;;;-1.68;100.00;99477.41;4495003;77;20972;-83
2022/11/28 21:09:35;;;;;;;89.67;43.47;;;;;;;-1.78;100.00;99476.19;4506580;77;20972;-83
2022/11/28 21:15:44;;;;;;;96.07;47.87;;;;;;;-1.86;100.00;99480.00;4485015;77;21003;-84
2022/11/28 21:21:45;;;;;;;82.97;42.40;;;;;;;-1.92;100.00;99483.28;4371837;77;10000164;-83
2022/11/28 21:27:46;;;;;;;97.03;47.10;;;;;;;-1.94;100.00;99484.63;4490582;77;21062;-83
2022/11/28 21:33:55;;;;;;;90.63;46.70;;;;;;;-1.94;100.00;99490.81;4503621;77;21078;-83
2022/11/28 21:39:59;;;;;;;86.93;45.83;;;;;;;-1.94;100.00;99485.44;4481084;77;21531;-83
2022/11/28 21:46:02;;;;;;;86.57;42.50;;;;;;;-1.95;100.00;99485.73;4534392;77;21641;-83
2022/11/28 21:52:06;;;;;;;73.00;39.33;;;;;;;-2.03;100.00;99485.80;4562708;77;22288;-82
2022/11/28 21:58:08;;;;;;;86.33;43.37;;;;;;;-2.01;100.00;99499.73;4533728;77;21036;-82
2022/11/28 22:04:13;;;;;;;89.50;48.20;;;;;;;-1.98;100.00;99504.54;4539288;77;20955;-82
2022/11/28 22:10:14;;;;;;;84.37;42.77;;;;;;;-2.04;100.00;99506.20;4546940;77;21042;-82
2022/11/28 22:16:21;;;;;;;85.20;40.87;;;;;;;-2.14;100.00;99513.78;4561580;77;21018;-82
2022/11/28 22:22:26;;;;;;;84.70;43.33;;;;;;;-2.19;100.00;99508.98;4547950;77;21011;-81
2022/11/28 22:28:27;;;;;;;88.53;43.63;;;;;;;-2.19;100.00;99500.40;4510675;77;21074;-81
2022/11/28 22:34:29;;;;;;;93.37;43.43;;;;;;;-2.26;100.00;99506.64;4540344;77;21502;-82
2022/11/28 22:40:33;;;;;;;89.40;43.77;;;;;;;-2.34;100.00;99494.34;4516331;77;21826;-82
2022/11/28 22:46:35;;;;;;;100.27;49.30;;;;;;;-2.36;100.00;99496.50;4541281;77;20993;-83
2022/11/28 22:52:37;;;;;;;91.97;44.93;;;;;;;-2.41;100.00;99505.37;4542470;77;21518;-83
2022/11/28 22:58:41;;;;;;;100.33;47.33;;;;;;;-2.41;100.00;99501.91;4539682;77;20982;-82
2022/11/28 23:04:43;;;;;;;99.37;48.23;;;;;;;-2.42;100.00;99497.61;4529504;77;20955;-82
2022/11/28 23:10:44;;;;;;;100.67;48.53;;;;;;;-2.52;100.00;99503.06;4545930;77;21986;-82
2022/11/28 23:16:46;;;;;;;105.57;48.43;;;;;;;-2.58;100.00;99505.48;4536476;77;20952;-82
2022/11/28 23:22:48;;;;;;;110.67;48.47;;;;;;;-2.62;100.00;99507.13;4557293;77;20998;-82
2022/11/28 23:28:50;;;;;;;103.93;47.47;;;;;;;-2.64;100.00;99503.38;4545672;77;21030;-83
2022/11/28 23:34:52;;;;;;;99.37;46.97;;;;;;;-2.68;100.00;99500.20;4557396;77;21480;-82
2022/11/28 23:40:55;;;;;;;83.37;40.57;;;;;;;-2.70;100.00;99495.11;4545966;77;21029;-82
2022/11/28 23:46:56;;;;;;;89.83;44.20;;;;;;;-2.76;100.00;99490.05;4494473;77;21053;-82
2022/11/28 23:52:58;;;;;;;89.47;44.27;;;;;;;-2.80;100.00;99488.45;4462030;78;21038;-81
2022/11/28 23:59:01;;;;;;;93.37;43.93;;;;;;;-2.81;100.00;99485.52;4450153;78;21009;-81
